首页
METAR-TAF:

METAR-TAF

机场 :

约阿尼纳, 希腊

纬度: 39-41-47N, 经度: 20-49-21E, 海拔: 475米

当前天气观测

该预报发布于1小时和1分钟前的13:20 UTC
温度 27°C
湿度 42%
气压 1015 hPa
能见度10公里或以上
少量云层高于7000英尺

METAR: LGIO 241320Z /////KT 9999 FEW070 27/13 Q1015

时间: 17:21 (14:21 UTC)

预报

该预报发布于3小时和21分钟前的11:00 UTC
预报有效从24日的 12点(UTC)到 24日的 21点(UTC)
风速3节,风向多变
能见度10公里或以上
1500米以下无云,无积雨云

TAF: LGIO 241100Z 2412/2421 VRB03KT CAVOK

超过4000个机场的气象观测和天气预报(METAR&TAF报告)。

可查询的气象台以黄色和红色小点在地图上表示。

将鼠标移到小点上方,可查看气象台名称。

然后点击查看天气观测和预报。

如需切换地图:点击带黑十字的绿色按钮放大地图;点击带横线的绿色按钮缩小地图;或者点击绿色箭头查看邻近地区的地图。


METAR-TAF: